createdAt,value
2018-10-04T00:01:15.317Z,7.03
2018-10-04T00:03:44.364Z,7.20
2018-10-04T00:06:13.360Z,7.90
2018-10-04T00:08:42.497Z,7.60
2018-10-04T00:11:11.541Z,7.23
2018-10-04T00:13:40.500Z,7.77
2018-10-04T00:16:09.560Z,7.57
2018-10-04T00:18:38.642Z,6.80
2018-10-04T00:21:07.613Z,6.77
2018-10-04T00:23:36.640Z,7.17
2018-10-04T00:26:05.741Z,6.73
2018-10-04T00:28:34.865Z,6.47
2018-10-04T00:31:07.645Z,6.63
2018-10-04T00:33:36.692Z,7.17
2018-10-04T00:36:05.768Z,7.63
2018-10-04T00:38:34.777Z,7.47
2018-10-04T00:41:03.786Z,6.67
2018-10-04T00:43:33.826Z,6.43
2018-10-04T00:46:02.949Z,6.90
2018-10-04T00:48:31.874Z,7.40
2018-10-04T00:51:00.904Z,8.07
2018-10-04T00:53:30.426Z,7.90
2018-10-04T00:55:59.488Z,6.73
2018-10-04T00:58:28.574Z,7.33
2018-10-04T01:00:57.651Z,7.20
2018-10-04T01:03:26.632Z,7.60
2018-10-04T01:05:55.615Z,8.47
2018-10-04T01:08:24.661Z,8.20
2018-10-04T01:10:54.761Z,7.47
2018-10-04T01:13:23.837Z,8.13
2018-10-04T01:15:52.936Z,7.90
2018-10-04T01:18:33.523Z,7.43
2018-10-04T01:21:02.619Z,8.03
2018-10-04T01:23:31.696Z,8.10
2018-10-04T01:26:00.727Z,7.97
2018-10-04T01:28:29.796Z,7.80
2018-10-04T01:30:58.895Z,7.47
2018-10-04T01:33:27.898Z,7.13
2018-10-04T01:35:56.910Z,7.80
2018-10-04T01:38:25.922Z,7.13
2018-10-04T01:40:55.015Z,7.80
2018-10-04T01:43:24.043Z,7.37
2018-10-04T01:45:53.038Z,7.83
2018-10-04T01:48:22.042Z,7.47
2018-10-04T01:50:51.205Z,7.57
2018-10-04T01:53:20.218Z,8.10
2018-10-04T01:55:49.173Z,7.77
2018-10-04T01:58:18.262Z,7.67
2018-10-04T02:00:47.320Z,7.10
2018-10-04T02:03:16.396Z,7.47
2018-10-04T02:05:45.392Z,7.33
2018-10-04T02:08:14.434Z,7.57
2018-10-04T02:10:43.512Z,7.90
2018-10-04T02:13:12.572Z,7.90
2018-10-04T02:15:41.605Z,7.23
2018-10-04T02:18:10.654Z,7.43
2018-10-04T02:20:39.690Z,7.70
2018-10-04T02:23:08.766Z,7.30
2018-10-04T02:25:37.741Z,7.37
2018-10-04T02:28:06.721Z,6.70
2018-10-04T02:30:35.766Z,7.07
2018-10-04T02:33:04.746Z,7.17
2018-10-04T02:35:33.810Z,7.20
2018-10-04T02:38:02.839Z,7.47
2018-10-04T02:40:31.942Z,7.27
2018-10-04T02:43:00.945Z,6.50
2018-10-04T02:45:32.892Z,7.50
2018-10-04T02:48:02.033Z,6.60
2018-10-04T02:50:31.090Z,6.63
2018-10-04T02:53:00.102Z,6.83
2018-10-04T02:55:34.617Z,6.43
2018-10-04T02:58:03.685Z,7.00
2018-10-04T03:00:32.799Z,7.30
2018-10-04T03:03:01.877Z,6.80
2018-10-04T03:05:31.806Z,6.80
2018-10-04T03:08:00.933Z,7.33
2018-10-04T03:10:30.006Z,6.27
2018-10-04T03:12:59.069Z,7.30
2018-10-04T03:15:28.201Z,6.47
2018-10-04T03:17:57.263Z,5.97
2018-10-04T03:20:26.373Z,6.23
2018-10-04T03:22:55.472Z,6.20
2018-10-04T03:25:24.537Z,6.47
2018-10-04T03:27:53.502Z,6.30
2018-10-04T03:30:22.699Z,5.97
2018-10-04T03:32:51.686Z,6.90
2018-10-04T03:35:20.717Z,6.67
2018-10-04T03:37:49.707Z,6.00
2018-10-04T03:40:18.713Z,5.87
2018-10-04T03:42:47.813Z,6.57
2018-10-04T03:45:16.893Z,6.70
2018-10-04T03:47:45.891Z,7.03
2018-10-04T03:50:15.021Z,6.70
2018-10-04T03:52:44.023Z,6.97
2018-10-04T03:55:13.039Z,6.57
2018-10-04T03:57:42.044Z,6.90
2018-10-04T04:00:11.015Z,6.73
2018-10-04T04:02:41.902Z,6.60
2018-10-04T04:05:10.981Z,6.73
2018-10-04T04:07:39.963Z,6.77
2018-10-04T04:10:09.005Z,6.50
2018-10-04T04:12:38.085Z,6.63
2018-10-04T04:15:07.623Z,7.50
2018-10-04T04:17:36.639Z,6.40
2018-10-04T04:20:05.828Z,6.10
2018-10-04T04:22:34.884Z,6.10
2018-10-04T04:25:04.024Z,6.47
2018-10-04T04:27:33.049Z,6.30
2018-10-04T04:30:02.030Z,6.30
2018-10-04T04:32:31.182Z,6.47
2018-10-04T04:35:00.260Z,6.27
2018-10-04T04:37:29.220Z,6.20
2018-10-04T04:39:58.254Z,6.60
2018-10-04T04:42:27.345Z,6.13
2018-10-04T04:44:56.402Z,6.30
2018-10-04T04:47:25.410Z,6.00
2018-10-04T04:49:54.412Z,5.97
2018-10-04T04:52:23.547Z,6.00
2018-10-04T04:55:26.066Z,5.97
2018-10-04T04:57:55.910Z,6.20
2018-10-04T05:00:26.205Z,6.00
2018-10-04T05:02:55.652Z,6.23
2018-10-04T05:05:25.210Z,6.40
2018-10-04T05:07:55.255Z,5.70
2018-10-04T05:10:24.833Z,7.17
2018-10-04T05:12:54.471Z,5.97
2018-10-04T05:15:23.541Z,5.97
2018-10-04T05:17:52.857Z,5.90
2018-10-04T05:20:21.971Z,6.03
2018-10-04T05:22:51.061Z,6.03
2018-10-04T05:25:20.077Z,5.90
2018-10-04T05:27:49.255Z,6.23
2018-10-04T05:30:18.627Z,5.67
2018-10-04T05:32:47.853Z,6.33
2018-10-04T05:35:16.825Z,6.13
2018-10-04T05:37:46.117Z,6.27
2018-10-04T05:40:15.334Z,5.73
2018-10-04T05:42:44.435Z,6.53
2018-10-04T05:45:13.540Z,6.10
2018-10-04T05:47:42.593Z,5.43
2018-10-04T05:50:11.613Z,6.23
2018-10-04T05:52:40.724Z,6.60
2018-10-04T05:55:09.879Z,6.73
2018-10-04T05:57:38.884Z,6.33
2018-10-04T06:00:19.277Z,6.57
2018-10-04T06:02:48.359Z,6.47
2018-10-04T06:05:17.573Z,6.60
2018-10-04T06:07:46.466Z,6.70
2018-10-04T06:10:15.605Z,5.90
2018-10-04T06:12:44.729Z,6.20
2018-10-04T06:15:13.810Z,6.40
2018-10-04T06:17:42.812Z,6.13
2018-10-04T06:20:11.825Z,6.30
2018-10-04T06:22:40.929Z,6.57
2018-10-04T06:25:10.009Z,6.17
2018-10-04T06:27:39.150Z,5.70
2018-10-04T06:30:08.921Z,5.80
2018-10-04T06:32:38.102Z,6.10
2018-10-04T06:35:07.091Z,5.90
2018-10-04T06:37:36.287Z,6.20
2018-10-04T06:40:05.592Z,5.90
2018-10-04T06:42:34.585Z,6.70
2018-10-04T06:45:03.619Z,6.50
2018-10-04T06:47:32.619Z,5.97
2018-10-04T06:50:01.738Z,6.50
2018-10-04T06:52:30.733Z,5.97
2018-10-04T06:54:59.770Z,5.53
2018-10-04T06:57:28.877Z,5.90
2018-10-04T06:59:57.956Z,6.23
2018-10-04T07:02:27.037Z,5.60
2018-10-04T07:04:56.177Z,6.00
2018-10-04T07:07:25.237Z,6.13
2018-10-04T07:09:54.227Z,5.87
2018-10-04T07:12:23.219Z,5.50
2018-10-04T07:14:52.254Z,6.07
2018-10-04T07:17:21.241Z,5.63
2018-10-04T07:19:50.227Z,5.50
2018-10-04T07:22:19.360Z,6.67
2018-10-04T07:24:48.377Z,5.87
2018-10-04T07:27:17.373Z,6.27
2018-10-04T07:29:46.500Z,5.93
2018-10-04T07:32:15.518Z,5.47
2018-10-04T07:34:44.626Z,6.27
2018-10-04T07:37:13.702Z,6.43
2018-10-04T07:39:42.738Z,6.50
2018-10-04T07:42:11.837Z,5.73
2018-10-04T07:44:40.842Z,6.20
2018-10-04T07:47:09.829Z,6.20
2018-10-04T07:49:38.848Z,5.90
2018-10-04T07:52:07.959Z,6.30
2018-10-04T07:54:37.043Z,6.00
2018-10-04T07:57:06.061Z,6.93
2018-10-04T07:59:35.118Z,6.77
2018-10-04T08:02:04.255Z,6.27
2018-10-04T08:04:33.526Z,5.70
2018-10-04T08:07:02.580Z,6.17
2018-10-04T08:09:31.583Z,6.30
2018-10-04T08:12:00.626Z,6.37
2018-10-04T08:14:29.689Z,6.40
2018-10-04T08:16:58.985Z,6.10
2018-10-04T08:19:27.996Z,6.87
2018-10-04T08:21:57.051Z,5.90
2018-10-04T08:24:26.108Z,6.00
2018-10-04T08:26:55.173Z,6.33
2018-10-04T08:29:24.163Z,6.23
2018-10-04T08:31:53.168Z,6.63
2018-10-04T08:34:22.278Z,5.30
2018-10-04T08:36:51.369Z,6.83
2018-10-04T08:39:20.374Z,5.87
2018-10-04T08:41:52.432Z,6.20
2018-10-04T08:44:21.466Z,5.37
2018-10-04T08:46:50.508Z,5.40
2018-10-04T08:49:19.603Z,5.30
2018-10-04T08:51:52.905Z,5.43
2018-10-04T08:54:27.332Z,5.07
2018-10-04T08:56:57.424Z,5.43
2018-10-04T08:59:26.483Z,5.20
2018-10-04T09:01:56.254Z,5.50
2018-10-04T09:04:25.466Z,5.33
2018-10-04T09:06:54.467Z,5.20
2018-10-04T09:09:23.566Z,5.33
2018-10-04T09:11:52.606Z,5.70
2018-10-04T09:14:21.774Z,5.30
2018-10-04T09:16:50.785Z,5.13
2018-10-04T09:19:19.758Z,5.00
2018-10-04T09:21:48.773Z,4.80
2018-10-04T09:24:17.814Z,4.97
2018-10-04T09:26:46.868Z,4.37
2018-10-04T09:29:15.872Z,4.03
2018-10-04T09:31:46.406Z,4.60
2018-10-04T09:34:15.491Z,4.03
2018-10-04T09:36:44.545Z,4.67
2018-10-04T09:39:13.558Z,4.03
2018-10-04T09:41:42.595Z,4.50
2018-10-04T09:44:16.716Z,4.77
2018-10-04T09:46:45.952Z,4.77
2018-10-04T09:49:14.969Z,4.43
2018-10-04T09:51:49.545Z,4.77
2018-10-04T09:54:23.925Z,4.40
2018-10-04T09:56:53.009Z,4.00
2018-10-04T09:59:21.985Z,3.77
2018-10-04T10:01:56.467Z,3.90
2018-10-04T10:04:25.552Z,3.80
2018-10-04T10:06:54.711Z,4.13
2018-10-04T10:09:23.695Z,4.30
2018-10-04T10:11:52.846Z,3.63
2018-10-04T10:14:21.839Z,3.77
2018-10-04T10:16:51.013Z,3.13
2018-10-04T10:19:20.153Z,3.50
2018-10-04T10:21:49.140Z,3.93
2018-10-04T10:24:18.197Z,3.57
2018-10-04T10:26:47.215Z,3.40
2018-10-04T10:29:16.256Z,4.03
2018-10-04T10:31:45.380Z,3.60
2018-10-04T10:34:14.642Z,3.97
2018-10-04T10:36:43.862Z,3.63
2018-10-04T10:39:12.924Z,4.03
2018-10-04T10:41:42.073Z,3.47
2018-10-04T10:44:11.192Z,3.37
2018-10-04T10:46:40.284Z,3.57
2018-10-04T10:49:09.330Z,3.43
2018-10-04T10:51:38.352Z,4.10
2018-10-04T10:54:07.691Z,3.97
2018-10-04T10:56:36.747Z,3.87
2018-10-04T10:59:05.827Z,3.73
2018-10-04T11:01:34.930Z,3.93
2018-10-04T11:04:03.971Z,3.70
2018-10-04T11:06:33.008Z,3.73
2018-10-04T11:09:02.017Z,3.77
2018-10-04T11:11:31.105Z,3.30
2018-10-04T11:14:00.166Z,3.00
2018-10-04T11:16:29.249Z,4.23
2018-10-04T11:18:58.298Z,3.80
2018-10-04T11:21:27.418Z,3.57
2018-10-04T11:23:56.590Z,3.30
2018-10-04T11:26:25.582Z,3.20
2018-10-04T11:28:54.698Z,3.13
2018-10-04T11:31:23.754Z,2.97
2018-10-04T11:33:52.758Z,3.07
2018-10-04T11:36:21.910Z,3.83
2018-10-04T11:38:51.060Z,3.53
2018-10-04T11:41:20.192Z,3.30
2018-10-04T11:43:51.503Z,3.57
2018-10-04T11:46:21.086Z,3.40
2018-10-04T11:48:50.094Z,2.90
2018-10-04T11:51:19.042Z,3.40
2018-10-04T11:53:48.090Z,3.30
2018-10-04T11:56:17.258Z,3.37
2018-10-04T11:58:46.286Z,3.70
2018-10-04T12:01:15.461Z,3.40
2018-10-04T12:03:44.484Z,3.30
2018-10-04T12:06:16.722Z,3.80
2018-10-04T12:08:45.736Z,3.93
2018-10-04T12:11:14.828Z,3.50
2018-10-04T12:13:43.946Z,3.00
2018-10-04T12:16:12.994Z,3.27
2018-10-04T12:18:42.114Z,3.50
2018-10-04T12:21:11.112Z,3.07
2018-10-04T12:23:40.182Z,3.23
2018-10-04T12:26:09.216Z,3.50
2018-10-04T12:28:38.266Z,3.70
2018-10-04T12:31:07.373Z,3.60
2018-10-04T12:33:36.432Z,3.80
2018-10-04T12:36:05.502Z,4.40
2018-10-04T12:38:34.635Z,3.70
2018-10-04T12:41:03.713Z,3.47
2018-10-04T12:43:32.784Z,3.43
2018-10-04T12:46:02.157Z,4.27
2018-10-04T12:48:31.185Z,3.97
2018-10-04T12:51:00.191Z,4.03
2018-10-04T12:53:29.231Z,4.03
2018-10-04T12:55:58.943Z,3.80
2018-10-04T12:58:28.159Z,4.13
2018-10-04T13:00:57.359Z,4.27
2018-10-04T13:03:26.385Z,3.67
2018-10-04T13:05:55.465Z,3.77
2018-10-04T13:08:24.570Z,3.93
2018-10-04T13:10:53.618Z,3.77
2018-10-04T13:13:22.641Z,3.47
2018-10-04T13:15:51.620Z,3.80
2018-10-04T13:18:20.706Z,3.50
2018-10-04T13:20:49.839Z,3.90
2018-10-04T13:23:18.813Z,4.00
2018-10-04T13:25:47.915Z,3.27
2018-10-04T13:28:17.100Z,3.37
2018-10-04T13:30:46.235Z,3.70
2018-10-04T13:33:15.246Z,3.30
2018-10-04T13:35:44.305Z,3.97
2018-10-04T13:38:13.404Z,3.70
2018-10-04T13:40:42.462Z,3.93
2018-10-04T13:43:11.471Z,3.60
2018-10-04T13:45:40.577Z,3.37
2018-10-04T13:48:09.736Z,3.60
2018-10-04T13:50:38.861Z,3.30
2018-10-04T13:53:07.941Z,3.20
2018-10-04T13:55:37.079Z,3.33
2018-10-04T13:58:06.451Z,3.70
2018-10-04T14:00:35.558Z,3.67
2018-10-04T14:03:04.665Z,3.30
2018-10-04T14:05:33.846Z,3.30
2018-10-04T14:08:03.014Z,3.13
2018-10-04T14:10:31.945Z,3.20
2018-10-04T14:13:01.033Z,3.70
2018-10-04T14:15:30.087Z,3.83
2018-10-04T14:17:59.194Z,2.90
2018-10-04T14:20:28.341Z,3.03
2018-10-04T14:22:57.459Z,3.27
2018-10-04T14:25:26.530Z,3.73
2018-10-04T14:27:55.623Z,3.47
2018-10-04T14:30:24.721Z,2.83
2018-10-04T14:32:53.870Z,3.40
2018-10-04T14:35:22.873Z,3.00
2018-10-04T14:37:52.193Z,3.07
2018-10-04T14:40:21.225Z,3.00
2018-10-04T14:42:50.205Z,3.30
2018-10-04T14:45:19.282Z,3.47
2018-10-04T14:47:48.370Z,3.10
2018-10-04T14:50:17.499Z,3.63
2018-10-04T14:52:46.558Z,2.90
2018-10-04T14:55:15.665Z,3.60
2018-10-04T14:57:44.789Z,3.87
2018-10-04T15:00:13.839Z,3.70
2018-10-04T15:02:42.972Z,3.67
2018-10-04T15:05:12.012Z,3.70
2018-10-04T15:07:41.160Z,3.90
2018-10-04T15:10:10.182Z,3.20
2018-10-04T15:12:39.591Z,3.10
2018-10-04T15:15:08.702Z,3.27
2018-10-04T15:17:37.917Z,3.37
2018-10-04T15:20:07.172Z,3.40
2018-10-04T15:22:36.307Z,3.23
2018-10-04T15:25:05.464Z,3.00
2018-10-04T15:27:35.186Z,3.40
2018-10-04T15:30:04.402Z,3.37
2018-10-04T15:32:33.494Z,4.07
2018-10-04T15:35:02.491Z,3.30
2018-10-04T15:37:31.717Z,2.93
2018-10-04T15:40:00.725Z,3.00
2018-10-04T15:42:29.761Z,3.70
2018-10-04T15:44:58.991Z,3.30
2018-10-04T15:47:28.139Z,3.60
2018-10-04T15:49:57.187Z,3.30
2018-10-04T15:52:26.334Z,3.33
2018-10-04T15:54:55.401Z,3.20
2018-10-04T15:57:24.469Z,3.03
2018-10-04T15:59:53.557Z,3.33
2018-10-04T16:02:22.687Z,3.33
2018-10-04T16:04:51.749Z,3.50
2018-10-04T16:07:21.041Z,2.90
2018-10-04T16:09:50.192Z,3.03
2018-10-04T16:12:19.302Z,3.73
2018-10-04T16:14:48.361Z,2.90
2018-10-04T16:17:17.924Z,2.83
2018-10-04T16:19:47.005Z,3.00
2018-10-04T16:22:15.981Z,3.13
2018-10-04T16:24:45.085Z,3.30
2018-10-04T16:27:19.578Z,2.87
2018-10-04T16:29:48.641Z,3.17
2018-10-04T16:32:18.366Z,3.07
2018-10-04T16:34:47.467Z,3.10
2018-10-04T16:37:16.537Z,4.00
2018-10-04T16:39:45.655Z,4.27
2018-10-04T16:42:14.849Z,3.73
2018-10-04T16:44:43.947Z,4.30
2018-10-04T16:47:13.053Z,4.87
2018-10-04T16:49:42.152Z,4.33
2018-10-04T16:52:11.340Z,5.00
2018-10-04T16:54:40.953Z,4.23
2018-10-04T16:57:10.357Z,4.40
2018-10-04T16:59:39.532Z,4.40
2018-10-04T17:02:08.661Z,4.53
2018-10-04T17:04:37.802Z,5.20
2018-10-04T17:07:07.783Z,5.97
2018-10-04T17:09:36.855Z,4.90
2018-10-04T17:12:05.905Z,4.67
2018-10-04T17:14:34.944Z,5.73
2018-10-04T17:17:03.951Z,5.83
2018-10-04T17:19:33.045Z,5.93
2018-10-04T17:22:02.123Z,5.97
2018-10-04T17:24:31.321Z,6.83
2018-10-04T17:27:00.444Z,7.23
2018-10-04T17:29:29.494Z,6.70
2018-10-04T17:31:58.563Z,7.27
2018-10-04T17:34:27.636Z,16.27
2018-10-04T17:36:56.767Z,15.77
2018-10-04T17:39:25.821Z,11.77
2018-10-04T17:41:54.945Z,11.00
2018-10-04T17:44:23.983Z,10.40
2018-10-04T17:46:53.095Z,10.70
2018-10-04T17:49:22.150Z,10.53
2018-10-04T17:51:51.310Z,9.97
2018-10-04T17:54:20.422Z,9.77
2018-10-04T17:56:49.422Z,10.00
2018-10-04T17:59:18.427Z,10.60
2018-10-04T18:01:47.598Z,10.80
2018-10-04T18:04:16.665Z,10.57
2018-10-04T18:06:45.752Z,11.03
2018-10-04T18:09:14.869Z,10.90
2018-10-04T18:11:46.696Z,10.07
2018-10-04T18:14:15.779Z,10.23
2018-10-04T18:16:44.802Z,10.57
2018-10-04T18:19:13.878Z,11.57
2018-10-04T18:21:43.000Z,10.90
2018-10-04T18:24:12.003Z,12.27
2018-10-04T18:26:41.082Z,11.37
2018-10-04T18:29:10.154Z,12.10
2018-10-04T18:31:39.153Z,12.77
2018-10-04T18:34:08.268Z,12.27
2018-10-04T18:36:37.324Z,12.13
2018-10-04T18:39:07.784Z,12.50
2018-10-04T18:41:36.950Z,13.03
2018-10-04T18:44:06.071Z,12.53
2018-10-04T18:46:35.188Z,13.13
2018-10-04T18:49:04.258Z,13.40
2018-10-04T18:51:33.366Z,12.13
2018-10-04T18:54:02.633Z,13.27
2018-10-04T18:56:31.844Z,12.43
2018-10-04T18:59:00.936Z,12.00
2018-10-04T19:01:30.026Z,11.07
2018-10-04T19:03:59.234Z,11.57
2018-10-04T19:06:28.254Z,11.17
2018-10-04T19:08:57.364Z,12.27
2018-10-04T19:11:26.479Z,10.67
2018-10-04T19:13:55.537Z,13.10
2018-10-04T19:16:24.628Z,11.93
2018-10-04T19:18:53.677Z,12.37
2018-10-04T19:21:22.707Z,12.53
2018-10-04T19:23:51.922Z,12.67
2018-10-04T19:26:20.910Z,13.40
2018-10-04T19:28:49.969Z,12.43
2018-10-04T19:31:19.011Z,13.30
2018-10-04T19:33:48.108Z,13.47
2018-10-04T19:36:17.138Z,12.30
2018-10-04T19:38:46.163Z,12.60
2018-10-04T19:41:15.194Z,12.77
2018-10-04T19:43:44.477Z,13.50
2018-10-04T19:46:13.525Z,13.83
2018-10-04T19:48:42.545Z,13.10
2018-10-04T19:51:11.637Z,13.90
2018-10-04T19:53:40.648Z,12.47
2018-10-04T19:56:09.705Z,14.00
2018-10-04T19:58:38.814Z,13.57
2018-10-04T20:01:07.881Z,14.23
2018-10-04T20:03:37.181Z,14.37
2018-10-04T20:06:06.109Z,13.90
2018-10-04T20:08:35.305Z,14.77
2018-10-04T20:11:04.419Z,14.10
2018-10-04T20:13:34.505Z,16.20
2018-10-04T20:16:03.851Z,15.67
2018-10-04T20:18:32.899Z,15.50
2018-10-04T20:21:02.011Z,16.73
2018-10-04T20:23:31.930Z,15.63
2018-10-04T20:26:01.023Z,15.17
2018-10-04T20:28:30.090Z,16.30
2018-10-04T20:30:59.113Z,16.83
2018-10-04T20:33:28.208Z,17.57
2018-10-04T20:35:57.190Z,19.60
2018-10-04T20:38:26.156Z,17.97
2018-10-04T20:40:55.202Z,15.97
2018-10-04T20:43:24.340Z,18.13
2018-10-04T20:45:53.399Z,17.17
2018-10-04T20:48:22.434Z,18.03
2018-10-04T20:50:51.486Z,17.40
2018-10-04T20:53:20.594Z,18.20
2018-10-04T20:55:49.660Z,18.70
2018-10-04T20:58:18.720Z,19.60
2018-10-04T21:00:47.772Z,18.70
2018-10-04T21:03:16.862Z,19.00
2018-10-04T21:05:45.846Z,17.37
2018-10-04T21:08:14.902Z,17.47
2018-10-04T21:10:43.910Z,19.27
2018-10-04T21:13:12.918Z,18.27
2018-10-04T21:15:41.922Z,18.53
2018-10-04T21:18:10.986Z,17.70
2018-10-04T21:20:40.098Z,19.00
2018-10-04T21:23:09.326Z,18.03
2018-10-04T21:25:38.193Z,18.73
2018-10-04T21:28:07.170Z,16.37
2018-10-04T21:30:36.220Z,17.83
2018-10-04T21:33:05.247Z,17.43
2018-10-04T21:35:34.368Z,17.93
2018-10-04T21:38:03.590Z,18.07
2018-10-04T21:40:32.863Z,20.40
2018-10-04T21:43:02.190Z,19.80
2018-10-04T21:45:31.456Z,17.50
2018-10-04T21:48:00.582Z,20.07
2018-10-04T21:50:29.822Z,17.80
2018-10-04T21:52:59.054Z,19.77
2018-10-04T21:55:28.290Z,21.37
2018-10-04T21:58:00.476Z,20.83
2018-10-04T22:00:29.982Z,19.20
2018-10-04T22:02:59.551Z,20.63
2018-10-04T22:05:29.139Z,19.27
2018-10-04T22:07:58.312Z,20.27
2018-10-04T22:10:27.657Z,20.13
2018-10-04T22:12:56.802Z,19.40
2018-10-04T22:15:25.925Z,20.20
2018-10-04T22:17:55.090Z,21.70
2018-10-04T22:20:24.324Z,21.13
2018-10-04T22:22:53.551Z,19.73
2018-10-04T22:25:22.721Z,19.83
2018-10-04T22:27:51.933Z,17.87
2018-10-04T22:30:21.193Z,19.47
2018-10-04T22:32:50.440Z,20.60
2018-10-04T22:35:19.653Z,20.80
2018-10-04T22:37:48.813Z,21.10
2018-10-04T22:40:18.077Z,20.03
2018-10-04T22:42:47.245Z,19.70
2018-10-04T22:45:16.485Z,18.03
2018-10-04T22:47:46.519Z,21.07
2018-10-04T22:50:15.819Z,19.93
2018-10-04T22:52:51.065Z,21.40
2018-10-04T22:55:20.335Z,19.40
2018-10-04T22:57:49.446Z,19.87
2018-10-04T23:00:18.667Z,18.60
2018-10-04T23:02:48.163Z,19.73
2018-10-04T23:05:17.397Z,18.90
2018-10-04T23:07:46.666Z,19.23
2018-10-04T23:10:17.746Z,18.63
2018-10-04T23:12:46.907Z,18.13
2018-10-04T23:15:16.133Z,16.83
2018-10-04T23:17:45.307Z,18.13
2018-10-04T23:20:14.569Z,19.67
2018-10-04T23:22:43.707Z,20.03
2018-10-04T23:25:12.945Z,21.33
2018-10-04T23:27:42.050Z,19.63
2018-10-04T23:30:11.593Z,21.40
2018-10-04T23:32:40.686Z,20.70
2018-10-04T23:35:09.687Z,19.97
2018-10-04T23:37:38.691Z,18.50
2018-10-04T23:40:07.725Z,19.80
2018-10-04T23:42:36.701Z,18.83
2018-10-04T23:45:16.653Z,18.87
2018-10-04T23:47:45.621Z,19.73
2018-10-04T23:50:14.690Z,20.60
2018-10-04T23:52:43.787Z,19.67
2018-10-04T23:55:12.808Z,20.33
2018-10-04T23:57:41.796Z,19.63
